Time;durP1;ratioP1;P1;durP2;ratioP2;P2;SDS_P1;SDS_P2;PMS_P1;PMS_P2;Temp;Humidity;BMP_temperature;BMP_pressure;BME280_temperature;BME280_humidity;BME280_pressure;Samples;Min_cycle;Max_cycle;Signal;HPM_P1;HPM_P2
2024/02/01 00:01:44;;;;;;;6.43;5.73;;;8.60;89.70;;;;;;10205607;28;21725;-62
2024/02/01 00:06:50;;;;;;;7.43;5.47;;;8.60;89.40;;;;;;10211679;28;20269;-61
2024/02/01 00:11:54;;;;;;;10.70;7.18;;;8.70;89.90;;;;;;10214779;28;20736;-60
2024/02/01 00:16:59;;;;;;;8.07;5.77;;;8.70;90.20;;;;;;10212236;28;20686;-59
2024/02/01 00:22:03;;;;;;;7.00;6.13;;;8.70;90.30;;;;;;10240321;28;20216;-60
2024/02/01 00:27:08;;;;;;;11.93;6.27;;;8.70;90.50;;;;;;10213165;28;20224;-60
2024/02/01 00:32:13;;;;;;;10.20;8.07;;;8.80;90.90;;;;;;10212089;28;20262;-60
2024/02/01 00:37:17;;;;;;;9.77;7.17;;;8.80;91.00;;;;;;10205060;28;20305;-61
2024/02/01 00:42:21;;;;;;;8.60;7.13;;;8.80;91.20;;;;;;10205756;28;20266;-60
2024/02/01 00:47:26;;;;;;;9.80;7.80;;;8.80;91.80;;;;;;10205001;28;20248;-61
2024/02/01 00:52:29;;;;;;;14.03;8.97;;;8.80;91.70;;;;;;10212271;28;20258;-61
2024/02/01 00:57:33;;;;;;;13.23;9.27;;;8.80;92.50;;;;;;10211949;28;20821;-60
2024/02/01 01:02:38;;;;;;;13.40;9.17;;;8.80;92.80;;;;;;10213055;28;20230;-61
2024/02/01 01:07:42;;;;;;;16.80;10.97;;;8.70;93.40;;;;;;10200609;28;20216;-60
2024/02/01 01:12:46;;;;;;;12.70;9.97;;;8.80;93.30;;;;;;10241890;28;20205;-61
2024/02/01 01:17:50;;;;;;;15.57;11.60;;;8.80;94.10;;;;;;10207966;28;20214;-64
2024/02/01 01:22:54;;;;;;;17.13;11.30;;;8.80;94.00;;;;;;10222412;28;20266;-61
2024/02/01 01:27:58;;;;;;;12.70;9.97;;;8.80;94.70;;;;;;10201978;29;20219;-60
2024/02/01 01:33:03;;;;;;;16.70;11.40;;;8.70;95.20;;;;;;10202092;28;20208;-60
2024/02/01 01:38:06;;;;;;;13.50;11.80;;;8.80;95.20;;;;;;10202536;28;20656;-61
2024/02/01 01:43:10;;;;;;;13.98;11.95;;;8.80;94.80;;;;;;10204967;28;20761;-60
2024/02/01 01:48:15;;;;;;;17.30;12.73;;;8.80;94.60;;;;;;10203500;28;20304;-65
2024/02/01 01:53:19;;;;;;;14.97;12.10;;;8.80;95.40;;;;;;10204939;28;20655;-63
2024/02/01 01:58:26;;;;;;;18.23;14.47;;;8.80;95.50;;;;;;10211260;28;20289;-61
2024/02/01 02:03:33;;;;;;;16.57;13.57;;;8.80;95.70;;;;;;10213893;28;20204;-64
2024/02/01 02:08:37;;;;;;;17.77;13.93;;;8.80;96.10;;;;;;10216211;28;20763;-61
2024/02/01 02:13:47;;;;;;;22.93;15.73;;;8.90;96.10;;;;;;10224024;28;20203;-61
2024/02/01 02:18:52;;;;;;;16.57;14.07;;;8.90;96.00;;;;;;10210624;28;20251;-62
2024/02/01 02:23:57;;;;;;;17.07;14.43;;;8.90;96.50;;;;;;10210891;28;20238;-62
2024/02/01 02:29:02;;;;;;;15.60;13.10;;;8.90;96.30;;;;;;10215449;28;20653;-63
2024/02/01 02:34:06;;;;;;;21.70;16.23;;;8.90;97.30;;;;;;10239861;28;20230;-62
2024/02/01 02:39:13;;;;;;;16.83;14.60;;;9.00;97.10;;;;;;10212269;28;20290;-62
2024/02/01 02:44:17;;;;;;;19.27;15.17;;;9.00;97.00;;;;;;10211669;28;20265;-62
2024/02/01 02:49:21;;;;;;;18.93;16.70;;;9.00;97.80;;;;;;10214972;28;20230;-64
2024/02/01 02:54:26;;;;;;;17.27;15.47;;;9.00;97.30;;;;;;10206232;28;20239;-62
2024/02/01 02:59:29;;;;;;;17.67;15.77;;;9.00;97.50;;;;;;10206023;29;20289;-62
2024/02/01 03:04:33;;;;;;;16.53;14.40;;;9.00;98.10;;;;;;10208462;28;20289;-63
2024/02/01 03:09:38;;;;;;;19.45;16.20;;;9.00;98.50;;;;;;10205466;28;20215;-62
2024/02/01 03:14:42;;;;;;;16.90;15.13;;;9.00;98.50;;;;;;10204790;28;20207;-60
2024/02/01 03:19:49;;;;;;;16.63;14.60;;;9.00;98.50;;;;;;10208257;28;20259;-60
2024/02/01 03:24:59;;;;;;;17.45;14.43;;;9.10;98.60;;;;;;10202794;28;20636;-59
2024/02/01 03:30:05;;;;;;;16.20;14.37;;;9.10;98.40;;;;;;10207295;28;20200;-60
2024/02/01 03:35:10;;;;;;;20.40;15.37;;;9.10;99.30;;;;;;10209743;28;20234;-61
2024/02/01 03:40:18;;;;;;;15.90;14.40;;;9.10;98.90;;;;;;10208335;28;20256;-62
2024/02/01 03:45:22;;;;;;;16.70;15.03;;;9.10;99.40;;;;;;10231393;28;20317;-58
2024/02/01 03:50:26;;;;;;;15.40;13.80;;;9.10;98.90;;;;;;10197449;28;20235;-61
2024/02/01 03:55:31;;;;;;;16.33;14.47;;;9.10;99.70;;;;;;10177472;28;20318;-60
2024/02/01 04:00:35;;;;;;;15.37;13.87;;;9.10;99.80;;;;;;10183721;28;20322;-61
2024/02/01 04:05:39;;;;;;;15.40;13.20;;;9.20;99.80;;;;;;10181753;28;20318;-61
2024/02/01 04:10:45;;;;;;;16.50;14.80;;;9.20;99.90;;;;;;10183455;28;20692;-60
2024/02/01 04:15:49;;;;;;;17.63;15.90;;;9.20;99.90;;;;;;10183576;28;20322;-59
2024/02/01 04:20:52;;;;;;;18.00;16.10;;;9.20;99.70;;;;;;10184948;28;20725;-58
2024/02/01 04:25:58;;;;;;;19.47;17.00;;;9.20;99.90;;;;;;10187991;28;20287;-60
2024/02/01 04:31:01;;;;;;;21.47;18.40;;;9.20;99.90;;;;;;10187622;28;20322;-60
2024/02/01 04:36:07;;;;;;;20.73;18.40;;;9.30;99.90;;;;;;10185762;28;20853;-60
2024/02/01 04:41:17;;;;;;;22.77;19.83;;;9.30;99.90;;;;;;10179460;28;20840;-61
2024/02/01 04:46:20;;;;;;;24.90;21.63;;;9.30;99.90;;;;;;10171680;28;20394;-61
2024/02/01 04:51:24;;;;;;;28.00;22.30;;;9.30;99.90;;;;;;10183959;28;20849;-61
2024/02/01 04:56:30;;;;;;;26.17;22.80;;;9.30;99.90;;;;;;10183606;28;20310;-60
2024/02/01 05:01:33;;;;;;;29.67;24.53;;;9.30;99.90;;;;;;10183543;28;20322;-60
2024/02/01 05:06:37;;;;;;;29.80;25.43;;;9.30;99.90;;;;;;10185765;28;20328;-59
2024/02/01 05:11:42;;;;;;;31.07;26.10;;;9.40;99.90;;;;;;10182996;28;20291;-63
2024/02/01 05:16:47;;;;;;;32.70;27.23;;;9.40;99.90;;;;;;10182107;28;20761;-62
2024/02/01 05:21:52;;;;;;;32.40;25.40;;;9.40;99.90;;;;;;10171038;28;20331;-60
2024/02/01 05:26:58;;;;;;;29.53;23.33;;;9.40;99.90;;;;;;10174888;29;20735;-61
2024/02/01 05:32:05;;;;;;;25.13;20.57;;;9.50;99.90;;;;;;10213542;28;20230;-61
2024/02/01 05:37:09;;;;;;;27.10;21.67;;;9.50;99.90;;;;;;10215180;28;20280;-62
2024/02/01 05:42:14;;;;;;;26.02;19.38;;;9.50;99.90;;;;;;10206845;28;20289;-62
2024/02/01 05:47:18;;;;;;;23.20;18.27;;;9.60;99.90;;;;;;10214874;29;20281;-62
2024/02/01 05:52:21;;;;;;;22.35;18.80;;;9.50;99.90;;;;;;10226228;28;20196;-63
2024/02/01 05:57:26;;;;;;;24.13;18.52;;;9.50;99.90;;;;;;10223530;28;20880;-62
2024/02/01 06:02:30;;;;;;;21.30;17.33;;;9.60;99.90;;;;;;10205797;28;20227;-62
2024/02/01 06:07:34;;;;;;;17.50;14.23;;;9.60;99.90;;;;;;10206017;28;20286;-62
2024/02/01 06:12:39;;;;;;;17.60;13.63;;;9.60;99.90;;;;;;10252367;28;20197;-62
2024/02/01 06:17:43;;;;;;;16.43;11.80;;;9.50;99.90;;;;;;10234760;28;20228;-61
2024/02/01 06:22:47;;;;;;;8.52;5.18;;;9.50;99.90;;;;;;10203223;28;20228;-62
2024/02/01 06:27:52;;;;;;;10.67;4.97;;;9.50;99.90;;;;;;10206362;28;20288;-61
2024/02/01 06:32:57;;;;;;;8.52;3.47;;;9.40;99.30;;;;;;10207516;28;20203;-61
2024/02/01 06:38:15;;;;;;;10.70;3.63;;;9.30;99.40;;;;;;10206057;28;20227;-62
2024/02/01 06:43:41;;;;;;;8.70;3.10;;;9.30;99.50;;;;;;10206093;28;20292;-61
2024/02/01 06:48:50;;;;;;;11.07;2.77;;;9.20;99.10;;;;;;10218929;28;20254;-62
2024/02/01 06:53:56;;;;;;;8.38;2.75;;;9.10;99.20;;;;;;10228036;28;20215;-60
2024/02/01 06:59:21;;;;;;;10.70;3.53;;;9.10;99.40;;;;;;10219080;28;20227;-61
2024/02/01 07:04:31;;;;;;;13.83;3.27;;;9.00;99.40;;;;;;10210715;28;20542;-62
2024/02/01 07:09:37;;;;;;;8.97;2.87;;;8.90;99.00;;;;;;10247695;28;20269;-61
2024/02/01 07:14:58;;;;;;;12.23;3.47;;;8.80;98.80;;;;;;10255740;28;20201;-61
2024/02/01 07:20:14;;;;;;;12.07;3.40;;;8.80;98.90;;;;;;10231266;28;20262;-62
2024/02/01 07:25:36;;;;;;;16.20;3.20;;;8.80;98.80;;;;;;10205009;28;20289;-62
2024/02/01 07:57:51;;;;;;;15.00;3.47;;;8.70;98.00;;;;;;10210517;28;20262;-60
2024/02/01 08:03:11;;;;;;;16.70;3.83;;;8.70;97.90;;;;;;10200924;28;20231;-61
2024/02/01 08:08:16;;;;;;;19.70;4.20;;;8.60;97.80;;;;;;10210729;28;20219;-62
2024/02/01 08:13:20;;;;;;;15.63;3.57;;;8.50;97.70;;;;;;10223992;29;20207;-63
2024/02/01 08:18:26;;;;;;;20.67;3.70;;;8.50;97.50;;;;;;10234921;28;20228;-61
2024/02/01 08:23:29;;;;;;;15.77;3.40;;;8.30;97.40;;;;;;10219312;28;20231;-63
2024/02/01 08:28:35;;;;;;;13.17;3.53;;;8.30;97.70;;;;;;10212678;29;20227;-63
2024/02/01 08:33:42;;;;;;;15.07;3.70;;;8.30;97.60;;;;;;10215609;29;20204;-62
2024/02/01 08:38:47;;;;;;;19.33;3.43;;;8.30;97.70;;;;;;10210692;29;20560;-62
2024/02/01 08:43:50;;;;;;;17.97;3.63;;;8.30;97.30;;;;;;10220738;28;20596;-62
2024/02/01 08:48:55;;;;;;;16.73;3.47;;;8.20;96.70;;;;;;10222203;28;20234;-62
2024/02/01 08:53:59;;;;;;;24.20;4.40;;;8.20;96.80;;;;;;10217495;28;20256;-62
2024/02/01 08:59:03;;;;;;;20.30;3.87;;;8.10;96.50;;;;;;10210229;28;20204;-62
2024/02/01 09:04:13;;;;;;;20.33;3.83;;;8.10;96.10;;;;;;10217829;28;20223;-62
2024/02/01 09:09:28;;;;;;;17.60;3.70;;;8.10;95.80;;;;;;10218238;28;20234;-62
2024/02/01 09:14:34;;;;;;;16.20;4.07;;;8.10;95.90;;;;;;10238214;28;20200;-62
2024/02/01 09:19:38;;;;;;;16.63;3.43;;;8.10;95.80;;;;;;10210687;29;20219;-64
2024/02/01 09:24:42;;;;;;;22.80;4.10;;;8.20;95.80;;;;;;10266828;28;20228;-66
2024/02/01 09:29:46;;;;;;;18.03;3.70;;;8.20;95.90;;;;;;10248723;28;20250;-64
2024/02/01 09:34:52;;;;;;;18.17;3.40;;;8.20;95.40;;;;;;10207324;29;20185;-63
2024/02/01 09:40:00;;;;;;;14.83;3.50;;;8.20;95.70;;;;;;10310055;28;20212;-63
2024/02/01 09:45:05;;;;;;;21.00;4.03;;;8.30;95.30;;;;;;10207193;29;20768;-64
2024/02/01 09:50:14;;;;;;;20.50;4.00;;;8.30;95.00;;;;;;10242038;28;20212;-64
2024/02/01 09:55:19;;;;;;;15.87;3.63;;;8.30;94.90;;;;;;10204004;28;20272;-64
2024/02/01 10:00:23;;;;;;;14.23;3.20;;;8.30;95.00;;;;;;10225719;28;20208;-64
2024/02/01 10:05:30;;;;;;;20.73;3.77;;;8.30;94.50;;;;;;10232941;28;20231;-64
2024/02/01 10:10:38;;;;;;;19.17;3.60;;;8.30;94.50;;;;;;10223876;28;20210;-64
2024/02/01 10:15:44;;;;;;;18.47;4.00;;;8.40;94.30;;;;;;10230074;28;20639;-64
2024/02/01 10:20:51;;;;;;;20.73;3.80;;;8.40;94.20;;;;;;10210695;28;20261;-65
2024/02/01 10:25:56;;;;;;;20.03;3.60;;;8.40;94.20;;;;;;10216499;28;20227;-64
2024/02/01 10:31:00;;;;;;;19.10;3.73;;;8.50;93.80;;;;;;10208138;28;20261;-64
2024/02/01 10:36:09;;;;;;;19.13;4.03;;;8.50;93.90;;;;;;10231446;28;20258;-64
2024/02/01 10:41:16;;;;;;;20.37;3.73;;;8.50;93.90;;;;;;10217915;29;20216;-65
2024/02/01 10:46:27;;;;;;;19.70;4.00;;;8.60;94.00;;;;;;10232490;28;20236;-64
2024/02/01 10:51:33;;;;;;;17.17;3.70;;;8.60;94.00;;;;;;10239288;29;20207;-64
2024/02/01 10:56:36;;;;;;;19.53;3.27;;;8.60;93.50;;;;;;10252532;28;20223;-64
2024/02/01 11:01:41;;;;;;;20.43;3.87;;;8.60;93.60;;;;;;10252571;28;20272;-62
2024/02/01 11:06:50;;;;;;;17.60;3.10;;;8.70;93.60;;;;;;10245022;28;20223;-62
2024/02/01 11:11:55;;;;;;;16.07;3.20;;;8.70;93.50;;;;;;10246154;29;20253;-63
2024/02/01 11:17:02;;;;;;;18.10;3.70;;;8.70;93.40;;;;;;10233494;28;20276;-64
2024/02/01 11:22:12;;;;;;;18.63;3.63;;;8.70;92.70;;;;;;10232997;28;20207;-64
2024/02/01 11:27:19;;;;;;;22.40;4.17;;;8.70;93.30;;;;;;10221618;28;20228;-62
2024/02/01 11:32:24;;;;;;;17.63;3.97;;;8.80;93.40;;;;;;10207838;28;20199;-64
2024/02/01 11:37:29;;;;;;;22.10;3.83;;;8.80;93.00;;;;;;10225607;29;20575;-64
2024/02/01 11:42:33;;;;;;;16.47;3.40;;;8.80;93.00;;;;;;10276701;28;20228;-64
2024/02/01 11:47:39;;;;;;;16.97;3.47;;;8.90;93.40;;;;;;10276687;28;20228;-66
2024/02/01 11:52:57;;;;;;;14.50;3.57;;;8.90;93.10;;;;;;10239085;28;20214;-64
2024/02/01 11:58:02;;;;;;;15.73;3.67;;;9.00;93.10;;;;;;10239335;28;20219;-63
2024/02/01 12:03:06;;;;;;;17.00;4.13;;;9.00;92.60;;;;;;10226988;28;20583;-65
2024/02/01 12:08:12;;;;;;;15.97;3.17;;;9.00;92.50;;;;;;10224334;28;20227;-66
2024/02/01 12:13:16;;;;;;;19.67;3.83;;;9.00;92.90;;;;;;10229513;28;20222;-65
2024/02/01 12:18:20;;;;;;;13.70;3.03;;;9.00;92.80;;;;;;10215230;28;20242;-62
2024/02/01 12:23:26;;;;;;;18.60;4.50;;;9.10;92.70;;;;;;10216837;29;20216;-62
2024/02/01 12:28:30;;;;;;;15.53;4.00;;;9.30;92.40;;;;;;10207598;29;20277;-64
2024/02/01 12:33:39;;;;;;;15.57;3.43;;;9.50;91.90;;;;;;10216061;29;20199;-65
2024/02/01 12:38:45;;;;;;;14.55;3.42;;;9.70;91.90;;;;;;10233892;28;20227;-61
2024/02/01 12:43:51;;;;;;;16.07;3.60;;;9.80;91.30;;;;;;10246760;28;20215;-62
2024/02/01 12:48:55;;;;;;;14.63;2.95;;;9.90;91.60;;;;;;10221771;28;20235;-64
2024/02/01 12:54:02;;;;;;;19.60;3.63;;;10.20;90.80;;;;;;10207379;29;20204;-63
2024/02/01 12:59:09;;;;;;;18.13;3.80;;;10.40;90.30;;;;;;10226723;29;20223;-64
2024/02/01 13:04:14;;;;;;;17.83;4.50;;;10.50;90.80;;;;;;10223960;28;20218;-64
2024/02/01 13:09:29;;;;;;;17.63;3.85;;;10.80;90.30;;;;;;10244914;28;20763;-63
2024/02/01 13:14:33;;;;;;;16.25;4.22;;;11.00;90.30;;;;;;10213727;29;20234;-62
2024/02/01 13:19:41;;;;;;;14.57;3.38;;;11.00;90.10;;;;;;10209129;28;20282;-63
2024/02/01 13:24:46;;;;;;;14.82;3.42;;;11.00;88.20;;;;;;10222902;29;20215;-64
2024/02/01 13:29:50;;;;;;;12.75;3.25;;;10.90;88.50;;;;;;10210911;29;20228;-64
2024/02/01 13:34:53;;;;;;;15.57;3.95;;;10.80;88.10;;;;;;10224419;28;20198;-64
2024/02/01 13:39:58;;;;;;;13.88;4.30;;;10.70;88.40;;;;;;10255585;28;20223;-65
2024/02/01 13:45:05;;;;;;;11.87;3.07;;;10.50;87.10;;;;;;10198132;29;20269;-65
2024/02/01 13:50:10;;;;;;;15.52;3.88;;;10.50;86.70;;;;;;10210807;28;20207;-67
2024/02/01 13:55:15;;;;;;;15.02;3.53;;;10.40;87.20;;;;;;10220326;28;20200;-66
2024/02/01 14:00:20;;;;;;;9.98;3.15;;;10.40;86.30;;;;;;10208226;28;20260;-66
2024/02/01 14:05:26;;;;;;;16.10;3.07;;;10.40;87.20;;;;;;10210137;28;20260;-67
2024/02/01 14:10:31;;;;;;;13.65;3.10;;;10.40;86.90;;;;;;10218825;28;20254;-66
2024/02/01 14:15:37;;;;;;;14.05;2.90;;;10.40;86.60;;;;;;10202357;28;20276;-67
2024/02/01 14:20:40;;;;;;;13.80;3.35;;;10.40;84.40;;;;;;10210542;28;20199;-67
2024/02/01 14:25:46;;;;;;;16.73;3.55;;;10.20;83.60;;;;;;10212140;28;20296;-67
2024/02/01 14:30:49;;;;;;;19.97;3.73;;;10.10;84.20;;;;;;10218784;28;20269;-66
2024/02/01 14:35:53;;;;;;;15.48;3.40;;;10.00;84.30;;;;;;10217752;28;21036;-66
2024/02/01 14:40:58;;;;;;;19.90;3.67;;;9.90;85.50;;;;;;10217688;28;20257;-67
2024/02/01 14:46:01;;;;;;;13.15;2.83;;;9.90;84.90;;;;;;10216825;28;20227;-67
2024/02/01 14:51:05;;;;;;;11.73;3.07;;;9.80;85.60;;;;;;10214321;28;20261;-68
2024/02/01 14:56:10;;;;;;;14.17;3.13;;;9.70;85.50;;;;;;10207797;28;20243;-67
2024/02/01 15:01:14;;;;;;;21.30;4.30;;;9.70;85.40;;;;;;10217019;28;20741;-65
2024/02/01 15:06:18;;;;;;;14.27;3.20;;;9.60;85.00;;;;;;10201176;28;20325;-67
2024/02/01 15:11:23;;;;;;;15.53;3.67;;;9.60;85.00;;;;;;10210015;28;20736;-67
2024/02/01 15:16:30;;;;;;;13.70;3.50;;;9.50;85.40;;;;;;10213809;28;20249;-66
2024/02/01 15:21:34;;;;;;;13.10;3.43;;;9.50;85.00;;;;;;10206669;29;20208;-66
2024/02/01 15:26:39;;;;;;;13.83;3.33;;;9.50;84.60;;;;;;10223295;28;20251;-66
2024/02/01 15:31:43;;;;;;;15.97;3.70;;;9.40;84.90;;;;;;10223271;28;20199;-67
2024/02/01 15:36:47;;;;;;;15.63;3.43;;;9.40;84.80;;;;;;10219512;28;20227;-67
2024/02/01 15:42:00;;;;;;;16.52;3.58;;;9.30;84.30;;;;;;10189831;28;20429;-68
2024/02/01 15:47:05;;;;;;;18.17;3.77;;;9.30;85.70;;;;;;10189200;28;20366;-67
2024/02/01 15:52:10;;;;;;;17.92;4.10;;;9.30;86.00;;;;;;10188896;28;20685;-66
2024/02/01 15:57:16;;;;;;;23.73;4.57;;;9.20;86.20;;;;;;10186805;28;20425;-65
2024/02/01 16:02:19;;;;;;;19.50;3.80;;;9.20;87.30;;;;;;10185958;28;20342;-65
2024/02/01 16:07:23;;;;;;;19.30;4.53;;;9.20;86.90;;;;;;10190337;28;20841;-66
2024/02/01 16:12:28;;;;;;;14.23;3.93;;;9.10;87.50;;;;;;10187415;28;20350;-66
2024/02/01 16:17:32;;;;;;;15.30;3.60;;;9.10;87.70;;;;;;10188073;28;20371;-67
2024/02/01 16:22:46;;;;;;;15.93;4.17;;;9.10;88.60;;;;;;10187404;29;20303;-65
2024/02/01 16:28:03;;;;;;;14.80;3.93;;;9.10;88.50;;;;;;10185734;28;20852;-67
2024/02/01 16:33:20;;;;;;;18.10;4.17;;;9.00;88.30;;;;;;10187601;28;20325;-69
2024/02/01 16:38:28;;;;;;;18.37;4.17;;;9.00;89.10;;;;;;10186040;28;20317;-66
2024/02/01 16:43:36;;;;;;;26.10;5.05;;;8.90;88.80;;;;;;10186123;28;20314;-66
2024/02/01 16:48:40;;;;;;;17.97;4.90;;;8.90;88.90;;;;;;10187628;28;20730;-66
2024/02/01 16:53:44;;;;;;;25.37;5.97;;;8.80;89.00;;;;;;10184642;28;20319;-66
2024/02/01 16:58:53;;;;;;;19.83;5.57;;;8.80;89.00;;;;;;10168604;28;20322;-69
2024/02/01 17:03:59;;;;;;;21.60;5.23;;;8.80;89.20;;;;;;10165664;28;20223;-65
2024/02/01 17:09:04;;;;;;;21.10;4.70;;;8.70;88.90;;;;;;10166346;28;20362;-66
2024/02/01 17:14:26;;;;;;;17.67;4.97;;;8.70;89.10;;;;;;10171523;28;20346;-66
2024/02/01 17:19:32;;;;;;;20.40;5.33;;;8.60;88.80;;;;;;10172263;28;20746;-66
2024/02/01 17:24:37;;;;;;;17.47;4.70;;;8.60;90.00;;;;;;10170083;29;20397;-66
2024/02/01 17:29:43;;;;;;;15.83;5.33;;;8.50;88.80;;;;;;10185590;28;20309;-64
2024/02/01 17:34:47;;;;;;;18.87;5.20;;;8.50;88.90;;;;;;10185582;28;20342;-66
2024/02/01 17:39:54;;;;;;;20.70;5.60;;;8.40;89.00;;;;;;10183941;28;20766;-64
2024/02/01 17:44:59;;;;;;;17.43;5.30;;;8.40;89.10;;;;;;10184269;29;20357;-64
2024/02/01 17:50:22;;;;;;;18.53;7.80;;;8.40;89.20;;;;;;10185058;28;20299;-64
2024/02/01 17:55:35;;;;;;;19.90;5.73;;;8.30;89.20;;;;;;10181129;28;20358;-64
2024/02/01 18:00:41;;;;;;;20.20;5.63;;;8.20;89.20;;;;;;10170962;28;20404;-66
2024/02/01 18:05:46;;;;;;;19.03;6.77;;;8.20;89.30;;;;;;10169689;28;20378;-65
2024/02/01 18:10:51;;;;;;;18.20;5.90;;;8.20;89.70;;;;;;10171110;28;21642;-65
2024/02/01 18:16:05;;;;;;;16.83;5.53;;;8.20;89.80;;;;;;10172410;28;20223;-65
2024/02/01 18:21:21;;;;;;;20.33;8.77;;;8.10;89.30;;;;;;10169978;28;20628;-64
2024/02/01 18:26:25;;;;;;;19.07;5.80;;;8.10;89.40;;;;;;10171974;29;20355;-63
2024/02/01 18:31:30;;;;;;;15.87;5.77;;;8.00;89.40;;;;;;10185144;28;20985;-64
2024/02/01 18:36:35;;;;;;;23.77;7.50;;;7.90;89.70;;;;;;10184313;28;20307;-65
2024/02/01 18:41:40;;;;;;;25.67;6.63;;;7.80;89.70;;;;;;10181211;28;20350;-65
2024/02/01 18:46:48;;;;;;;25.77;7.33;;;7.80;90.00;;;;;;10179855;29;20323;-65
2024/02/01 18:51:58;;;;;;;22.27;6.67;;;7.70;89.90;;;;;;10178209;29;20366;-66
2024/02/01 18:57:03;;;;;;;19.87;7.00;;;7.70;90.00;;;;;;10174339;28;20327;-65
2024/02/01 19:02:32;;;;;;;18.30;7.20;;;7.60;90.00;;;;;;10168621;29;20361;-65
2024/02/01 19:07:41;;;;;;;20.77;7.53;;;7.60;90.00;;;;;;10192210;28;20369;-60
2024/02/01 19:12:46;;;;;;;24.27;7.47;;;7.60;90.10;;;;;;10197418;28;20240;-65
2024/02/01 19:17:51;;;;;;;18.77;6.27;;;7.50;90.10;;;;;;10184304;28;20322;-60
2024/02/01 19:22:55;;;;;;;26.30;7.23;;;7.50;90.20;;;;;;10176444;28;20832;-62
2024/02/01 19:28:03;;;;;;;22.20;7.57;;;7.40;90.20;;;;;;10183217;29;20329;-63
2024/02/01 19:33:13;;;;;;;20.77;6.90;;;7.40;90.20;;;;;;10199073;28;20231;-64
2024/02/01 19:38:19;;;;;;;22.43;7.70;;;7.40;90.30;;;;;;10203355;29;20267;-60
2024/02/01 19:43:25;;;;;;;23.40;6.50;;;7.40;90.30;;;;;;10211133;28;20273;-62
2024/02/01 19:48:30;;;;;;;17.37;6.40;;;7.40;90.40;;;;;;10204521;28;20253;-62
2024/02/01 19:53:33;;;;;;;26.90;7.33;;;7.30;90.40;;;;;;10188043;28;20243;-63
2024/02/01 19:58:37;;;;;;;23.47;7.60;;;7.30;90.40;;;;;;10177700;28;21772;-64
2024/02/01 20:03:42;;;;;;;28.17;7.70;;;7.30;90.50;;;;;;10173950;28;20215;-65
2024/02/01 20:08:50;;;;;;;23.33;7.50;;;7.30;90.60;;;;;;10171407;28;20365;-63
2024/02/01 20:13:54;;;;;;;24.67;8.00;;;7.30;90.70;;;;;;10171846;28;20264;-63
2024/02/01 20:18:59;;;;;;;18.77;8.17;;;7.30;90.70;;;;;;10168533;28;20228;-63
2024/02/01 20:24:04;;;;;;;25.93;8.53;;;7.30;90.60;;;;;;10171985;28;20410;-63
2024/02/01 20:29:10;;;;;;;24.47;8.30;;;7.20;90.80;;;;;;10181290;28;20318;-62
2024/02/01 20:34:26;;;;;;;19.97;8.50;;;7.20;90.70;;;;;;10183176;28;20265;-64
2024/02/01 20:39:36;;;;;;;20.33;8.37;;;7.20;90.80;;;;;;10185477;28;20373;-63
2024/02/01 20:44:40;;;;;;;27.40;9.00;;;7.20;90.80;;;;;;10185937;28;20306;-63
2024/02/01 20:49:45;;;;;;;20.53;8.00;;;7.20;90.80;;;;;;10186092;28;20357;-63
2024/02/01 20:55:08;;;;;;;25.77;8.90;;;7.20;91.10;;;;;;10183460;29;20303;-64
2024/02/01 21:00:19;;;;;;;20.10;8.57;;;7.20;90.80;;;;;;10188268;28;20298;-66
2024/02/01 21:05:36;;;;;;;24.83;8.50;;;7.20;90.80;;;;;;10187313;28;20318;-62
2024/02/01 21:10:47;;;;;;;28.53;9.10;;;7.20;90.90;;;;;;10187842;29;20223;-63
2024/02/01 21:15:54;;;;;;;23.97;8.73;;;7.20;91.00;;;;;;10183853;28;20342;-60
2024/02/01 21:21:04;;;;;;;26.03;10.00;;;7.20;91.00;;;;;;10185253;28;20303;-62
2024/02/01 21:26:30;;;;;;;22.30;9.10;;;7.20;91.00;;;;;;10185037;28;20322;-61
2024/02/01 21:32:05;;;;;;;26.37;10.20;;;7.10;91.00;;;;;;10184441;28;20314;-61
2024/02/01 21:37:14;;;;;;;28.67;10.00;;;7.10;91.10;;;;;;10185174;28;21093;-62
2024/02/01 21:42:58;;;;;;;27.57;11.30;;;7.10;91.10;;;;;;10185283;28;20291;-62
2024/02/01 21:48:02;;;;;;;22.43;10.93;;;7.00;91.30;;;;;;10184400;28;20369;-60
2024/02/01 21:53:08;;;;;;;22.97;10.93;;;7.00;91.20;;;;;;10182701;28;20239;-61
2024/02/01 21:58:13;;;;;;;26.63;11.93;;;6.90;91.40;;;;;;10175214;28;20330;-60
2024/02/01 22:03:17;;;;;;;28.13;12.37;;;7.00;91.50;;;;;;10171015;28;20466;-60
2024/02/01 22:08:22;;;;;;;22.03;10.70;;;6.90;91.40;;;;;;10167429;28;20835;-61
2024/02/01 22:13:26;;;;;;;28.10;11.37;;;6.90;91.80;;;;;;10168448;28;20349;-60
2024/02/01 22:18:29;;;;;;;21.63;10.23;;;6.90;91.70;;;;;;10166514;28;20316;-62
2024/02/01 22:23:35;;;;;;;25.70;10.17;;;6.90;91.70;;;;;;10166806;29;21975;-63
2024/02/01 22:28:40;;;;;;;35.03;13.10;;;7.00;92.10;;;;;;10177336;28;20330;-62
2024/02/01 22:33:43;;;;;;;29.40;12.73;;;7.00;91.80;;;;;;10183266;28;20298;-61
2024/02/01 22:38:48;;;;;;;26.33;10.37;;;7.00;91.90;;;;;;10211627;28;21740;-61
2024/02/01 22:43:53;;;;;;;23.27;11.13;;;7.00;91.90;;;;;;10219595;29;20252;-62
2024/02/01 22:48:56;;;;;;;25.90;11.10;;;7.10;91.90;;;;;;10233548;28;20266;-60
2024/02/01 22:54:02;;;;;;;25.93;10.57;;;7.10;92.10;;;;;;10223910;28;20207;-61
2024/02/01 22:59:05;;;;;;;27.13;10.03;;;7.10;91.90;;;;;;10213331;28;20220;-60
2024/02/01 23:04:09;;;;;;;25.87;9.63;;;7.10;92.20;;;;;;10223464;28;20686;-60
2024/02/01 23:09:15;;;;;;;19.60;9.80;;;7.10;92.10;;;;;;10216030;28;20262;-59
2024/02/01 23:14:19;;;;;;;22.43;9.50;;;7.10;92.30;;;;;;10216829;28;20258;-61
2024/02/01 23:19:22;;;;;;;24.73;9.47;;;7.10;92.20;;;;;;10268865;28;20698;-61
2024/02/01 23:24:28;;;;;;;21.80;8.90;;;7.10;92.30;;;;;;10222797;28;20211;-60
2024/02/01 23:29:32;;;;;;;21.57;8.97;;;7.20;92.50;;;;;;10213199;28;20230;-60
2024/02/01 23:34:38;;;;;;;20.57;8.47;;;7.20;92.30;;;;;;10219326;28;20874;-61
2024/02/01 23:39:43;;;;;;;26.63;9.10;;;7.20;92.40;;;;;;10218081;29;20709;-61
2024/02/01 23:44:47;;;;;;;20.77;8.83;;;7.20;92.50;;;;;;10216122;28;20644;-61
2024/02/01 23:49:50;;;;;;;24.03;9.27;;;7.20;92.70;;;;;;10223363;28;20227;-61
2024/02/01 23:54:58;;;;;;;26.17;9.40;;;7.20;92.90;;;;;;10225730;29;20215;-60
